createdAt,value
2022-10-17T00:01:22.598Z,20.10
2022-10-17T00:03:52.535Z,21.75
2022-10-17T00:06:21.264Z,20.90
2022-10-17T00:08:49.896Z,20.75
2022-10-17T00:11:23.795Z,16.80
2022-10-17T00:17:08.582Z,17.27
2022-10-17T00:19:38.827Z,18.05
2022-10-17T00:22:07.344Z,19.67
2022-10-17T00:24:36.218Z,19.25
2022-10-17T00:27:04.996Z,18.33
2022-10-17T00:29:34.151Z,19.52
2022-10-17T00:32:02.801Z,19.17
2022-10-17T00:34:32.094Z,16.50
2022-10-17T00:37:02.062Z,18.52
2022-10-17T00:39:30.828Z,21.58
2022-10-17T00:42:00.336Z,18.55
2022-10-17T00:45:05.641Z,20.73
2022-10-17T00:47:37.746Z,19.10
2022-10-17T00:50:10.181Z,22.23
2022-10-17T00:52:41.434Z,19.10
2022-10-17T00:55:15.924Z,18.60
2022-10-17T00:57:46.795Z,19.55
2022-10-17T01:00:17.827Z,18.17
2022-10-17T01:02:47.491Z,19.17
2022-10-17T01:05:18.991Z,19.17
2022-10-17T01:07:53.544Z,18.88
2022-10-17T01:13:13.232Z,18.42
2022-10-17T01:16:06.719Z,18.42
2022-10-17T01:18:52.498Z,20.25
2022-10-17T01:21:45.355Z,17.02
2022-10-17T01:25:02.334Z,17.67
2022-10-17T01:28:19.850Z,18.48
2022-10-17T01:31:10.464Z,18.33
2022-10-17T01:33:57.597Z,18.10
2022-10-17T01:36:41.301Z,19.42
2022-10-17T01:39:25.885Z,17.58
2022-10-17T01:42:04.556Z,17.75
2022-10-17T01:44:43.069Z,19.30
2022-10-17T01:47:20.661Z,18.38
2022-10-17T01:49:54.619Z,15.82
2022-10-17T01:52:28.852Z,17.75
2022-10-17T01:55:04.604Z,18.13
2022-10-17T01:57:39.180Z,19.52
2022-10-17T02:00:15.994Z,20.65
2022-10-17T02:02:49.904Z,18.38
2022-10-17T02:05:25.333Z,19.75
2022-10-17T02:07:53.930Z,19.13
2022-10-17T02:10:32.702Z,18.80
2022-10-17T02:13:11.342Z,17.63
2022-10-17T02:16:04.866Z,19.38
2022-10-17T02:19:13.893Z,18.50
2022-10-17T02:21:54.965Z,19.25
2022-10-17T02:24:36.726Z,17.65
2022-10-17T02:27:14.837Z,18.48
2022-10-17T02:29:51.282Z,17.17
2022-10-17T02:32:29.594Z,18.17
2022-10-17T02:35:04.939Z,19.40
2022-10-17T02:37:35.592Z,16.90
2022-10-17T02:40:07.796Z,18.35
2022-10-17T02:42:41.826Z,19.92
2022-10-17T02:45:12.256Z,16.95
2022-10-17T02:47:52.334Z,17.90
2022-10-17T02:50:50.127Z,18.55
2022-10-17T02:53:33.050Z,17.88
2022-10-17T02:56:10.062Z,18.98
2022-10-17T02:58:41.295Z,19.58
2022-10-17T03:01:12.223Z,19.77
2022-10-17T03:03:41.151Z,16.63
2022-10-17T03:06:11.632Z,19.45
2022-10-17T03:08:41.122Z,18.38
2022-10-17T03:11:09.941Z,16.58
2022-10-17T03:13:39.903Z,17.67
2022-10-17T03:16:09.628Z,20.08
2022-10-17T03:18:40.034Z,19.00
2022-10-17T03:21:11.477Z,18.48
2022-10-17T03:23:40.483Z,19.55
2022-10-17T03:26:11.343Z,19.70
2022-10-17T03:28:40.969Z,18.52
2022-10-17T03:31:11.990Z,18.85
2022-10-17T03:33:41.263Z,18.83
2022-10-17T03:36:16.123Z,19.00
2022-10-17T03:38:48.122Z,18.45
2022-10-17T03:41:18.575Z,18.60
2022-10-17T03:43:47.578Z,22.40
2022-10-17T03:48:50.214Z,19.30
2022-10-17T03:51:20.339Z,20.38
2022-10-17T03:53:53.764Z,19.23
2022-10-17T03:56:26.496Z,21.77
2022-10-17T03:59:06.871Z,18.70
2022-10-17T04:01:38.091Z,19.73
2022-10-17T04:04:07.379Z,20.52
2022-10-17T04:06:39.683Z,18.85
2022-10-17T04:09:09.125Z,21.35
2022-10-17T04:11:47.695Z,18.02
2022-10-17T04:14:16.660Z,19.38
2022-10-17T04:16:45.301Z,19.60
2022-10-17T04:19:18.753Z,19.88
2022-10-17T04:21:50.197Z,20.70
2022-10-17T04:24:19.968Z,21.33
2022-10-17T04:27:00.944Z,20.88
2022-10-17T04:29:32.263Z,22.27
2022-10-17T04:32:10.368Z,19.63
2022-10-17T04:34:49.714Z,20.65
2022-10-17T04:37:20.435Z,20.95
2022-10-17T04:39:51.849Z,21.38
2022-10-17T04:42:20.511Z,21.85
2022-10-17T04:44:49.886Z,21.08
2022-10-17T04:47:20.075Z,23.38
2022-10-17T04:49:48.843Z,23.85
2022-10-17T04:52:18.253Z,21.42
2022-10-17T04:54:51.911Z,18.50
2022-10-17T04:57:21.211Z,22.40
2022-10-17T04:59:58.008Z,22.02
2022-10-17T05:02:52.695Z,21.13
2022-10-17T05:05:22.177Z,20.92
2022-10-17T05:07:53.288Z,20.58
2022-10-17T05:10:27.109Z,21.83
2022-10-17T05:12:56.396Z,21.92
2022-10-17T05:15:29.343Z,23.63
2022-10-17T05:17:59.309Z,23.55
2022-10-17T05:20:31.089Z,20.85
2022-10-17T05:23:00.561Z,22.67
2022-10-17T05:25:35.332Z,20.67
2022-10-17T05:28:03.899Z,23.60
2022-10-17T05:30:35.312Z,21.00
2022-10-17T05:33:07.091Z,21.67
2022-10-17T05:35:36.079Z,21.83
2022-10-17T05:38:04.757Z,19.50
2022-10-17T05:40:38.602Z,21.40
2022-10-17T05:43:07.478Z,22.23
2022-10-17T05:45:37.845Z,18.63
2022-10-17T05:48:10.070Z,18.60
2022-10-17T05:50:38.925Z,21.80
2022-10-17T05:53:14.162Z,21.90
2022-10-17T05:55:58.104Z,21.08
2022-10-17T06:01:35.133Z,22.58
2022-10-17T06:04:03.987Z,22.00
2022-10-17T06:06:33.601Z,23.83
2022-10-17T06:09:03.125Z,22.15
2022-10-17T06:11:37.526Z,21.75
2022-10-17T06:14:08.660Z,25.48
2022-10-17T06:16:39.678Z,21.42
2022-10-17T06:19:08.262Z,22.23
2022-10-17T06:21:38.726Z,21.70
2022-10-17T06:24:22.502Z,27.85
2022-10-17T06:26:55.247Z,24.08
2022-10-17T06:29:24.269Z,25.25
2022-10-17T06:31:54.461Z,25.05
2022-10-17T06:34:23.075Z,29.33
2022-10-17T06:36:52.068Z,28.00
2022-10-17T06:39:21.722Z,24.63
2022-10-17T06:42:00.359Z,25.83
2022-10-17T06:44:46.256Z,28.63
2022-10-17T06:47:41.449Z,30.65
2022-10-17T06:50:24.893Z,31.75
2022-10-17T06:53:07.124Z,31.15
2022-10-17T06:55:54.003Z,33.10
2022-10-17T06:58:40.654Z,31.77
2022-10-17T07:01:15.457Z,34.03
2022-10-17T07:03:50.095Z,33.13
2022-10-17T07:06:19.189Z,33.08
2022-10-17T07:08:48.830Z,32.03
2022-10-17T07:11:22.607Z,35.55
2022-10-17T07:13:55.417Z,34.50
2022-10-17T07:16:24.234Z,33.95
2022-10-17T07:19:01.287Z,33.00
2022-10-17T07:21:38.141Z,32.00
2022-10-17T07:24:08.761Z,30.58
2022-10-17T07:26:37.474Z,30.23
2022-10-17T07:29:08.185Z,28.83
2022-10-17T07:32:04.051Z,28.45
2022-10-17T07:34:32.910Z,29.70
2022-10-17T07:37:01.601Z,32.33
2022-10-17T07:39:30.538Z,29.65
2022-10-17T07:41:59.586Z,31.65
2022-10-17T07:44:29.760Z,26.25
2022-10-17T07:46:58.857Z,26.55
2022-10-17T07:49:27.699Z,24.42
2022-10-17T07:51:56.335Z,25.35
2022-10-17T07:54:25.316Z,25.48
2022-10-17T07:56:53.932Z,22.65
2022-10-17T07:59:22.700Z,23.65
2022-10-17T08:01:52.702Z,25.08
2022-10-17T08:04:21.641Z,23.48
2022-10-17T08:06:53.415Z,23.00
2022-10-17T08:09:25.279Z,26.27
2022-10-17T08:11:54.143Z,24.23
2022-10-17T08:14:22.902Z,25.90
2022-10-17T08:16:55.430Z,24.77
2022-10-17T08:19:24.449Z,24.63
2022-10-17T08:21:54.443Z,29.63
2022-10-17T08:24:23.337Z,25.33
2022-10-17T08:26:53.402Z,21.25
2022-10-17T08:29:22.203Z,20.77
2022-10-17T08:31:56.233Z,23.00
2022-10-17T08:34:29.908Z,23.65
2022-10-17T08:36:58.548Z,27.80
2022-10-17T08:39:27.408Z,21.98
2022-10-17T08:42:15.283Z,18.38
2022-10-17T08:44:58.280Z,23.00
2022-10-17T08:47:36.336Z,21.83
2022-10-17T08:50:12.897Z,22.70
2022-10-17T08:52:49.370Z,20.67
2022-10-17T08:55:28.779Z,21.27
2022-10-17T08:57:57.405Z,23.08
2022-10-17T09:00:29.535Z,20.77
2022-10-17T09:03:21.614Z,22.52
2022-10-17T09:05:58.227Z,22.33
2022-10-17T09:08:41.963Z,17.58
2022-10-17T09:11:28.159Z,19.77
2022-10-17T09:14:16.058Z,18.88
2022-10-17T09:17:04.525Z,19.83
2022-10-17T09:19:39.181Z,18.65
2022-10-17T09:22:16.403Z,20.10
2022-10-17T09:24:53.028Z,21.08
2022-10-17T09:27:29.126Z,17.77
2022-10-17T09:30:44.085Z,17.73
2022-10-17T09:33:34.922Z,20.02
2022-10-17T09:36:14.739Z,21.20
2022-10-17T09:38:49.116Z,18.27
2022-10-17T09:44:20.146Z,22.08
2022-10-17T09:47:24.074Z,21.08
2022-10-17T09:49:53.595Z,21.00
2022-10-17T09:52:31.681Z,18.20
2022-10-17T09:55:06.028Z,18.38
2022-10-17T09:57:56.773Z,19.27
2022-10-17T10:00:29.058Z,18.45
2022-10-17T10:03:16.229Z,18.83
2022-10-17T10:06:02.303Z,18.30
2022-10-17T10:08:37.914Z,17.25
2022-10-17T10:11:13.804Z,16.30
2022-10-17T10:13:44.548Z,17.52
2022-10-17T10:16:21.979Z,18.63
2022-10-17T10:18:52.156Z,19.98
2022-10-17T10:21:23.304Z,16.92
2022-10-17T10:24:13.316Z,16.10
2022-10-17T10:26:46.088Z,16.48
2022-10-17T10:29:30.811Z,16.90
2022-10-17T10:32:11.174Z,18.85
2022-10-17T10:34:50.080Z,16.90
2022-10-17T10:37:23.346Z,18.38
2022-10-17T10:39:57.442Z,16.63
2022-10-17T10:42:30.863Z,15.93
2022-10-17T10:45:04.624Z,16.38
2022-10-17T10:47:34.084Z,17.27
2022-10-17T10:50:26.620Z,14.55
2022-10-17T10:53:34.791Z,15.35
2022-10-17T13:38:48.031Z,19.88
2022-10-17T13:41:35.510Z,16.13
2022-10-17T13:44:13.905Z,15.68
2022-10-17T13:46:43.924Z,17.00
2022-10-17T13:49:21.353Z,17.27
2022-10-17T13:51:54.957Z,19.17
2022-10-17T13:54:40.207Z,16.55
2022-10-17T13:57:21.484Z,18.25
2022-10-17T13:59:54.575Z,17.23
2022-10-17T14:02:26.880Z,17.25
2022-10-17T14:05:19.660Z,16.30
2022-10-17T14:08:12.780Z,17.10
2022-10-17T14:10:45.918Z,18.02
2022-10-17T14:13:24.316Z,17.10
2022-10-17T14:15:55.637Z,17.00
2022-10-17T14:18:34.844Z,17.27
2022-10-17T14:24:17.395Z,17.33
2022-10-17T14:26:52.821Z,14.90
2022-10-17T14:29:27.729Z,18.13
2022-10-17T14:32:06.473Z,17.05
2022-10-17T14:34:40.523Z,16.50
2022-10-17T14:37:33.090Z,16.50
2022-10-17T14:40:03.653Z,17.85
2022-10-17T14:42:39.461Z,20.02
2022-10-17T14:45:14.578Z,17.38
2022-10-17T14:47:44.254Z,15.38
2022-10-17T14:50:25.496Z,17.05
2022-10-17T14:53:03.586Z,18.27
2022-10-17T14:55:35.421Z,16.75
2022-10-17T14:58:18.539Z,16.83
2022-10-17T15:00:47.286Z,19.90
2022-10-17T15:03:15.788Z,20.88
2022-10-17T15:05:44.627Z,18.88
2022-10-17T15:08:16.476Z,17.45
2022-10-17T15:10:46.780Z,20.05
2022-10-17T15:13:27.727Z,17.13
2022-10-17T15:15:57.953Z,21.70
2022-10-17T15:18:26.488Z,19.15
2022-10-17T15:21:04.698Z,18.77
2022-10-17T15:23:42.386Z,18.52
2022-10-17T15:26:20.665Z,19.65
2022-10-17T15:28:51.632Z,20.73
2022-10-17T15:31:24.315Z,25.35
2022-10-17T15:33:53.500Z,22.30
2022-10-17T15:36:25.885Z,20.15
2022-10-17T15:38:57.032Z,17.98
2022-10-17T15:41:28.573Z,20.10
2022-10-17T15:43:58.662Z,19.35
2022-10-17T15:46:31.773Z,23.02
2022-10-17T15:49:07.544Z,22.48
2022-10-17T15:51:36.563Z,22.35
2022-10-17T15:54:06.403Z,23.83
2022-10-17T15:56:39.650Z,21.80
2022-10-17T15:59:14.937Z,24.02
2022-10-17T16:01:44.547Z,21.10
2022-10-17T16:04:15.958Z,23.23
2022-10-17T16:06:44.884Z,21.20
2022-10-17T16:09:13.419Z,21.85
2022-10-17T16:11:44.604Z,20.30
2022-10-17T16:14:18.139Z,24.13
2022-10-17T16:16:46.865Z,23.17
2022-10-17T16:19:16.303Z,31.05
2022-10-17T16:21:45.622Z,22.45
2022-10-17T16:24:14.440Z,21.73
2022-10-17T16:26:43.203Z,20.42
2022-10-17T16:29:12.065Z,22.17
2022-10-17T16:31:45.425Z,22.92
2022-10-17T16:34:15.729Z,22.02
2022-10-17T16:36:44.598Z,25.35
2022-10-17T16:39:13.119Z,24.48
2022-10-17T16:41:42.018Z,23.90
2022-10-17T16:44:14.606Z,25.63
2022-10-17T16:46:44.720Z,24.45
2022-10-17T16:49:16.006Z,26.90
2022-10-17T16:51:44.940Z,26.55
2022-10-17T16:54:13.494Z,29.02
2022-10-17T16:56:42.659Z,28.88
2022-10-17T16:59:12.676Z,25.48
2022-10-17T17:01:41.805Z,32.13
2022-10-17T17:04:11.688Z,27.08
2022-10-17T17:06:40.483Z,28.48
2022-10-17T17:09:10.215Z,25.52
2022-10-17T17:11:40.031Z,29.17
2022-10-17T17:14:10.322Z,25.52
2022-10-17T17:16:39.134Z,27.70
2022-10-17T17:19:13.856Z,29.27
2022-10-17T17:21:47.601Z,31.10
2022-10-17T17:24:17.140Z,30.35
2022-10-17T17:26:46.919Z,31.70
2022-10-17T17:29:15.627Z,27.75
2022-10-17T17:31:44.343Z,25.92
2022-10-17T17:34:18.026Z,28.88
2022-10-17T17:36:47.406Z,25.33
2022-10-17T17:39:16.989Z,28.27
2022-10-17T17:41:46.821Z,27.23
2022-10-17T17:44:17.000Z,27.05
2022-10-17T17:46:46.728Z,27.73
2022-10-17T17:49:16.799Z,24.75
2022-10-17T17:51:46.701Z,24.65
2022-10-17T17:54:16.017Z,23.48
2022-10-17T17:56:44.835Z,27.05
2022-10-17T17:59:14.518Z,26.27
2022-10-17T18:01:44.303Z,23.38
2022-10-17T18:04:13.533Z,29.95
2022-10-17T18:06:43.999Z,26.13
2022-10-17T18:09:12.907Z,23.35
2022-10-17T18:11:42.044Z,24.50
2022-10-17T18:14:13.658Z,27.02
2022-10-17T18:16:42.962Z,26.40
2022-10-17T18:19:12.996Z,23.08
2022-10-17T18:21:44.311Z,25.02
2022-10-17T18:24:12.879Z,26.17
2022-10-17T18:26:41.763Z,26.90
2022-10-17T18:29:11.782Z,28.30
2022-10-17T18:31:40.589Z,27.05
2022-10-17T18:34:09.138Z,29.02
2022-10-17T18:36:38.507Z,26.23
2022-10-17T18:39:09.044Z,27.83
2022-10-17T18:41:37.901Z,26.42
2022-10-17T18:44:06.546Z,29.98
2022-10-17T18:46:40.919Z,29.00
2022-10-17T18:49:13.143Z,34.33
2022-10-17T18:51:43.823Z,29.42
2022-10-17T18:54:20.391Z,29.67
2022-10-17T18:56:51.454Z,30.88
2022-10-17T18:59:21.295Z,32.47
2022-10-17T19:01:50.421Z,32.55
2022-10-17T19:04:19.260Z,31.08
2022-10-17T19:06:48.108Z,28.63
2022-10-17T19:09:18.355Z,26.38
2022-10-17T19:11:47.081Z,28.48
2022-10-17T19:14:15.677Z,29.70
2022-10-17T19:16:48.392Z,27.77
2022-10-17T19:19:19.844Z,28.05
2022-10-17T19:21:49.763Z,26.40
2022-10-17T19:24:23.095Z,25.17
2022-10-17T19:26:54.849Z,24.15
2022-10-17T19:29:27.121Z,26.90
2022-10-17T19:34:29.960Z,24.17
2022-10-17T19:36:58.733Z,27.70
2022-10-17T19:39:28.722Z,25.70
2022-10-17T19:41:57.428Z,26.30
2022-10-17T19:44:26.214Z,29.50
2022-10-17T19:46:55.199Z,24.70
2022-10-17T19:49:23.753Z,25.75
2022-10-17T19:51:52.653Z,27.45
2022-10-17T19:54:21.245Z,25.55
2022-10-17T19:56:51.328Z,26.17
2022-10-17T19:59:20.106Z,25.27
2022-10-17T20:01:48.906Z,26.05
2022-10-17T20:04:17.457Z,24.10
2022-10-17T20:06:46.184Z,23.90
2022-10-17T20:09:17.061Z,25.65
2022-10-17T20:11:46.625Z,26.65
2022-10-17T20:14:16.610Z,27.70
2022-10-17T20:16:50.129Z,26.23
2022-10-17T20:19:19.009Z,24.85
2022-10-17T20:21:47.817Z,25.75
2022-10-17T20:24:18.270Z,27.73
2022-10-17T20:26:47.185Z,26.10
2022-10-17T20:29:21.079Z,26.52
2022-10-17T20:31:50.100Z,24.45
2022-10-17T20:34:20.256Z,24.75
2022-10-17T20:36:49.944Z,29.92
2022-10-17T20:39:20.937Z,25.88
2022-10-17T20:41:50.003Z,25.77
2022-10-17T20:44:20.034Z,26.50
2022-10-17T20:47:01.279Z,24.40
2022-10-17T20:49:33.007Z,25.02
2022-10-17T20:52:02.569Z,26.30
2022-10-17T20:54:31.576Z,23.85
2022-10-17T20:57:03.914Z,25.98
2022-10-17T20:59:36.349Z,25.85
2022-10-17T21:02:06.034Z,28.67
2022-10-17T21:04:50.727Z,27.20
2022-10-17T21:07:19.528Z,26.60
2022-10-17T21:09:48.059Z,25.10
2022-10-17T21:12:25.960Z,25.65
2022-10-17T21:15:01.885Z,26.67
2022-10-17T21:17:30.742Z,25.48
2022-10-17T21:19:59.442Z,25.08
2022-10-17T21:22:28.507Z,22.55
2022-10-17T21:24:57.366Z,22.23
2022-10-17T21:27:26.084Z,25.10
2022-10-17T21:29:54.639Z,23.30
2022-10-17T21:32:40.222Z,24.05
2022-10-17T21:35:13.405Z,26.35
2022-10-17T21:37:42.106Z,25.45
2022-10-17T21:40:12.373Z,24.17
2022-10-17T21:42:41.067Z,25.55
2022-10-17T21:45:15.945Z,22.98
2022-10-17T21:48:11.745Z,25.15
2022-10-17T21:50:38.757Z,24.40
2022-10-17T21:53:07.499Z,25.77
2022-10-17T21:55:37.684Z,23.95
2022-10-17T21:58:06.524Z,24.65
2022-10-17T22:00:35.263Z,25.45
2022-10-17T22:03:07.201Z,25.27
2022-10-17T22:05:36.055Z,27.80
2022-10-17T22:08:05.145Z,25.45
2022-10-17T22:10:33.988Z,24.92
2022-10-17T22:13:02.719Z,27.45
2022-10-17T22:15:31.441Z,24.52
2022-10-17T22:18:00.168Z,23.48
2022-10-17T22:20:30.514Z,28.17
2022-10-17T22:22:59.234Z,27.63
2022-10-17T22:25:27.849Z,24.48
2022-10-17T22:27:56.560Z,27.45
2022-10-17T22:30:25.126Z,25.45
2022-10-17T22:32:53.831Z,22.52
2022-10-17T22:35:22.362Z,24.77
2022-10-17T22:37:52.515Z,23.27
2022-10-17T22:40:21.152Z,22.23
2022-10-17T22:42:49.882Z,23.63
2022-10-17T22:45:18.451Z,24.02
2022-10-17T22:47:47.328Z,23.60
2022-10-17T22:50:16.067Z,25.88
2022-10-17T22:52:44.769Z,24.60
2022-10-17T22:55:15.049Z,25.33
2022-10-17T22:57:44.395Z,26.80
2022-10-17T23:00:14.605Z,24.73
2022-10-17T23:02:43.497Z,23.92
2022-10-17T23:05:12.506Z,24.42
2022-10-17T23:07:41.206Z,25.45
2022-10-17T23:10:10.836Z,24.45
2022-10-17T23:12:40.994Z,24.95
2022-10-17T23:15:11.068Z,25.35
2022-10-17T23:17:39.753Z,25.65
2022-10-17T23:20:09.885Z,24.75
2022-10-17T23:22:38.677Z,21.90
2022-10-17T23:25:08.420Z,22.40
2022-10-17T23:27:37.521Z,23.55
2022-10-17T23:30:09.347Z,22.42
2022-10-17T23:32:38.092Z,21.98
2022-10-17T23:35:07.754Z,21.67
2022-10-17T23:37:37.571Z,24.13
2022-10-17T23:40:07.815Z,20.90
2022-10-17T23:42:36.600Z,20.77
2022-10-17T23:45:07.851Z,19.55
2022-10-17T23:47:36.658Z,17.88
2022-10-17T23:50:06.574Z,21.92
2022-10-17T23:52:35.934Z,18.73
2022-10-17T23:55:04.956Z,17.55
2022-10-17T23:57:34.433Z,17.27
